EmailTwitter


Observations de surface / France / LFBP (07610)

Régions: Québec | Canada | États-Unis | Europe | France | UK | Ailleurs
Station
Affichage
Infos & localisation pour LFBP (07610) | Aide pour décoder les METARs

Observations prises le 2020-09-19 à 15H30 UTC à PONT-LONG-UZEIN/, FR (LFBP)

Température: 25.0 Celsius

Point de rosée: 15.0 Celsius

Humidité relative: 54%

Indice Humidex: 29.

Vents: Ouest-nord-ouest à 6 km/h ou 3 noeuds.

Pression au niveau moyen de la mer: 101.10 kilopascals.

Observation METAR:

LFBP 191530Z AUTO 29003KT 250V330 CAVOK 25/15 Q1011 TEMPO 27018G30KT 3000 TSRA

BKN012 BKN040CB=